sensor_id;sensor_type;location;lat;lon;timestamp;temperature;humidity
66035;HTU21D;52805;51.074;5.842;2024-03-08T00:00:41;7.33;-5.73
66035;HTU21D;52805;51.074;5.842;2024-03-08T00:03:08;7.33;-5.85
66035;HTU21D;52805;51.074;5.842;2024-03-08T00:05:36;7.31;-5.76
66035;HTU21D;52805;51.074;5.842;2024-03-08T00:08:05;7.28;-5.76
66035;HTU21D;52805;51.074;5.842;2024-03-08T00:10:31;7.26;-5.79
66035;HTU21D;52805;51.074;5.842;2024-03-08T00:12:57;7.24;-5.78
66035;HTU21D;52805;51.074;5.842;2024-03-08T00:15:23;7.22;-5.73
66035;HTU21D;52805;51.074;5.842;2024-03-08T00:17:49;7.20;-5.85
66035;HTU21D;52805;51.074;5.842;2024-03-08T00:20:16;7.16;-5.95
66035;HTU21D;52805;51.074;5.842;2024-03-08T00:22:43;7.15;-5.92
66035;HTU21D;52805;51.074;5.842;2024-03-08T00:25:09;7.10;-5.82
66035;HTU21D;52805;51.074;5.842;2024-03-08T00:27:35;7.10;-5.80
66035;HTU21D;52805;51.074;5.842;2024-03-08T00:30:03;7.05;-5.72
66035;HTU21D;52805;51.074;5.842;2024-03-08T00:32:30;7.03;-5.73
66035;HTU21D;52805;51.074;5.842;2024-03-08T00:34:57;7.01;-5.63
66035;HTU21D;52805;51.074;5.842;2024-03-08T00:37:23;6.99;-5.62
66035;HTU21D;52805;51.074;5.842;2024-03-08T00:39:51;6.95;-5.60
66035;HTU21D;52805;51.074;5.842;2024-03-08T00:42:18;6.93;-5.65
66035;HTU21D;52805;51.074;5.842;2024-03-08T00:44:43;6.88;-5.50
66035;HTU21D;52805;51.074;5.842;2024-03-08T00:47:10;6.87;-5.47
66035;HTU21D;52805;51.074;5.842;2024-03-08T00:49:36;6.86;-5.45
66035;HTU21D;52805;51.074;5.842;2024-03-08T00:52:06;6.83;-5.48
66035;HTU21D;52805;51.074;5.842;2024-03-08T00:54:35;6.81;-5.33
66035;HTU21D;52805;51.074;5.842;2024-03-08T00:57:04;6.76;-5.24
66035;HTU21D;52805;51.074;5.842;2024-03-08T00:59:30;6.75;-5.10
66035;HTU21D;52805;51.074;5.842;2024-03-08T01:01:59;6.74;-5.09
66035;HTU21D;52805;51.074;5.842;2024-03-08T01:04:26;6.72;-5.05
66035;HTU21D;52805;51.074;5.842;2024-03-08T01:06:58;6.69;-4.97
66035;HTU21D;52805;51.074;5.842;2024-03-08T01:09:24;6.68;-4.99
66035;HTU21D;52805;51.074;5.842;2024-03-08T01:11:52;6.65;-4.90
66035;HTU21D;52805;51.074;5.842;2024-03-08T01:14:20;6.64;-4.88
66035;HTU21D;52805;51.074;5.842;2024-03-08T01:16:49;6.63;-4.79
66035;HTU21D;52805;51.074;5.842;2024-03-08T01:19:15;6.59;-4.75
66035;HTU21D;52805;51.074;5.842;2024-03-08T01:21:42;6.61;-4.62
66035;HTU21D;52805;51.074;5.842;2024-03-08T01:24:08;6.57;-4.76
66035;HTU21D;52805;51.074;5.842;2024-03-08T01:26:34;6.56;-4.72
66035;HTU21D;52805;51.074;5.842;2024-03-08T01:29:03;6.53;-4.66
66035;HTU21D;52805;51.074;5.842;2024-03-08T01:31:29;6.52;-4.70
66035;HTU21D;52805;51.074;5.842;2024-03-08T01:33:56;6.49;-4.66
66035;HTU21D;52805;51.074;5.842;2024-03-08T01:36:22;6.48;-4.66
66035;HTU21D;52805;51.074;5.842;2024-03-08T01:38:47;6.46;-4.59
66035;HTU21D;52805;51.074;5.842;2024-03-08T01:41:13;6.42;-4.50
66035;HTU21D;52805;51.074;5.842;2024-03-08T01:43:39;6.41;-4.44
66035;HTU21D;52805;51.074;5.842;2024-03-08T01:46:07;6.39;-4.48
66035;HTU21D;52805;51.074;5.842;2024-03-08T01:48:34;6.38;-4.49
66035;HTU21D;52805;51.074;5.842;2024-03-08T01:51:00;6.35;-4.41
66035;HTU21D;52805;51.074;5.842;2024-03-08T01:53:27;6.33;-4.50
66035;HTU21D;52805;51.074;5.842;2024-03-08T01:55:56;6.28;-4.28
66035;HTU21D;52805;51.074;5.842;2024-03-08T01:58:23;6.27;-4.25
66035;HTU21D;52805;51.074;5.842;2024-03-08T02:00:49;6.26;-4.31
66035;HTU21D;52805;51.074;5.842;2024-03-08T02:03:16;6.23;-4.16
66035;HTU21D;52805;51.074;5.842;2024-03-08T02:05:42;6.22;-4.12
66035;HTU21D;52805;51.074;5.842;2024-03-08T02:08:09;6.20;-4.01
66035;HTU21D;52805;51.074;5.842;2024-03-08T02:10:40;6.21;-4.00
66035;HTU21D;52805;51.074;5.842;2024-03-08T02:13:07;6.17;-4.07
66035;HTU21D;52805;51.074;5.842;2024-03-08T02:15:55;6.15;-4.07
66035;HTU21D;52805;51.074;5.842;2024-03-08T02:18:23;6.12;-3.95
66035;HTU21D;52805;51.074;5.842;2024-03-08T02:20:52;6.11;-4.02
66035;HTU21D;52805;51.074;5.842;2024-03-08T02:23:22;6.10;-3.96
66035;HTU21D;52805;51.074;5.842;2024-03-08T02:25:48;6.09;-3.91
66035;HTU21D;52805;51.074;5.842;2024-03-08T02:28:15;6.08;-3.84
66035;HTU21D;52805;51.074;5.842;2024-03-08T02:30:41;6.08;-3.82
66035;HTU21D;52805;51.074;5.842;2024-03-08T02:33:08;6.08;-3.79
66035;HTU21D;52805;51.074;5.842;2024-03-08T02:35:36;6.06;-3.77
66035;HTU21D;52805;51.074;5.842;2024-03-08T02:38:03;6.06;-3.69
66035;HTU21D;52805;51.074;5.842;2024-03-08T02:40:29;6.02;-3.73
66035;HTU21D;52805;51.074;5.842;2024-03-08T02:42:55;6.04;-3.77
66035;HTU21D;52805;51.074;5.842;2024-03-08T02:45:21;6.01;-3.75
66035;HTU21D;52805;51.074;5.842;2024-03-08T02:47:46;6.01;-3.70
66035;HTU21D;52805;51.074;5.842;2024-03-08T02:50:15;5.99;-3.65
66035;HTU21D;52805;51.074;5.842;2024-03-08T02:52:42;5.99;-3.70
66035;HTU21D;52805;51.074;5.842;2024-03-08T02:55:08;5.98;-3.67
66035;HTU21D;52805;51.074;5.842;2024-03-08T02:57:36;5.94;-3.64
66035;HTU21D;52805;51.074;5.842;2024-03-08T03:00:02;5.94;-3.54
66035;HTU21D;52805;51.074;5.842;2024-03-08T03:02:29;5.93;-3.44
66035;HTU21D;52805;51.074;5.842;2024-03-08T03:04:55;5.92;-3.41
66035;HTU21D;52805;51.074;5.842;2024-03-08T03:07:21;5.92;-3.33
66035;HTU21D;52805;51.074;5.842;2024-03-08T03:09:47;5.91;-3.46
66035;HTU21D;52805;51.074;5.842;2024-03-08T03:12:13;5.89;-3.35
66035;HTU21D;52805;51.074;5.842;2024-03-08T03:14:39;5.87;-3.27
66035;HTU21D;52805;51.074;5.842;2024-03-08T03:17:05;5.87;-3.27
66035;HTU21D;52805;51.074;5.842;2024-03-08T03:19:31;5.83;-3.28
66035;HTU21D;52805;51.074;5.842;2024-03-08T03:21:56;5.87;-3.15
66035;HTU21D;52805;51.074;5.842;2024-03-08T03:24:22;5.82;-3.23
66035;HTU21D;52805;51.074;5.842;2024-03-08T03:26:49;5.79;-3.15
66035;HTU21D;52805;51.074;5.842;2024-03-08T03:29:16;5.79;-2.91
66035;HTU21D;52805;51.074;5.842;2024-03-08T03:31:42;5.77;-3.06
66035;HTU21D;52805;51.074;5.842;2024-03-08T03:34:12;5.75;-2.99
66035;HTU21D;52805;51.074;5.842;2024-03-08T03:36:38;5.71;-2.91
66035;HTU21D;52805;51.074;5.842;2024-03-08T03:39:10;5.71;-2.91
66035;HTU21D;52805;51.074;5.842;2024-03-08T03:41:38;5.71;-2.86
66035;HTU21D;52805;51.074;5.842;2024-03-08T03:44:05;5.68;-2.83
66035;HTU21D;52805;51.074;5.842;2024-03-08T03:46:32;5.68;-2.74
66035;HTU21D;52805;51.074;5.842;2024-03-08T03:48:58;5.67;-2.64
66035;HTU21D;52805;51.074;5.842;2024-03-08T03:51:24;5.67;-2.60
66035;HTU21D;52805;51.074;5.842;2024-03-08T03:53:51;5.65;-2.67
66035;HTU21D;52805;51.074;5.842;2024-03-08T03:56:16;5.64;-2.56
66035;HTU21D;52805;51.074;5.842;2024-03-08T03:58:42;5.65;-2.56
66035;HTU21D;52805;51.074;5.842;2024-03-08T04:01:08;5.61;-2.60
66035;HTU21D;52805;51.074;5.842;2024-03-08T04:03:35;5.59;-2.53
66035;HTU21D;52805;51.074;5.842;2024-03-08T04:06:06;5.57;-2.55
66035;HTU21D;52805;51.074;5.842;2024-03-08T04:08:31;5.57;-2.55
66035;HTU21D;52805;51.074;5.842;2024-03-08T04:11:00;5.55;-2.41
66035;HTU21D;52805;51.074;5.842;2024-03-08T04:13:26;5.53;-2.25
66035;HTU21D;52805;51.074;5.842;2024-03-08T04:15:52;5.49;-2.17
66035;HTU21D;52805;51.074;5.842;2024-03-08T04:18:17;5.49;-2.14
66035;HTU21D;52805;51.074;5.842;2024-03-08T04:20:46;5.46;-2.10
66035;HTU21D;52805;51.074;5.842;2024-03-08T04:23:12;5.45;-2.03
66035;HTU21D;52805;51.074;5.842;2024-03-08T04:25:37;5.43;-1.93
66035;HTU21D;52805;51.074;5.842;2024-03-08T04:28:03;5.42;-1.96
66035;HTU21D;52805;51.074;5.842;2024-03-08T04:30:29;5.43;-2.00
66035;HTU21D;52805;51.074;5.842;2024-03-08T04:32:55;5.43;-2.02
66035;HTU21D;52805;51.074;5.842;2024-03-08T04:35:21;5.40;-1.92
66035;HTU21D;52805;51.074;5.842;2024-03-08T04:37:47;5.39;-1.96
66035;HTU21D;52805;51.074;5.842;2024-03-08T04:40:13;5.35;-1.87
66035;HTU21D;52805;51.074;5.842;2024-03-08T04:42:39;5.35;-1.77
66035;HTU21D;52805;51.074;5.842;2024-03-08T04:45:05;5.35;-1.74
66035;HTU21D;52805;51.074;5.842;2024-03-08T04:47:33;5.32;-1.67
66035;HTU21D;52805;51.074;5.842;2024-03-08T04:49:59;5.31;-1.66
66035;HTU21D;52805;51.074;5.842;2024-03-08T04:52:26;5.28;-1.53
66035;HTU21D;52805;51.074;5.842;2024-03-08T04:54:53;5.28;-1.70
66035;HTU21D;52805;51.074;5.842;2024-03-08T04:57:19;5.26;-1.63
66035;HTU21D;52805;51.074;5.842;2024-03-08T04:59:45;5.26;-1.56
66035;HTU21D;52805;51.074;5.842;2024-03-08T05:02:11;5.24;-1.53
66035;HTU21D;52805;51.074;5.842;2024-03-08T05:04:37;5.24;-1.48
66035;HTU21D;52805;51.074;5.842;2024-03-08T05:07:03;5.23;-1.44
66035;HTU21D;52805;51.074;5.842;2024-03-08T05:09:29;5.20;-1.38
66035;HTU21D;52805;51.074;5.842;2024-03-08T05:11:57;5.20;-1.34
66035;HTU21D;52805;51.074;5.842;2024-03-08T05:14:25;5.19;-1.25
66035;HTU21D;52805;51.074;5.842;2024-03-08T05:16:51;5.21;-1.32
66035;HTU21D;52805;51.074;5.842;2024-03-08T05:19:18;5.18;-1.26
66035;HTU21D;52805;51.074;5.842;2024-03-08T05:21:45;5.17;-1.40
66035;HTU21D;52805;51.074;5.842;2024-03-08T05:24:11;5.17;-1.28
66035;HTU21D;52805;51.074;5.842;2024-03-08T05:26:37;5.15;-1.16
66035;HTU21D;52805;51.074;5.842;2024-03-08T05:29:03;5.15;-1.18
66035;HTU21D;52805;51.074;5.842;2024-03-08T05:31:35;5.10;-1.09
66035;HTU21D;52805;51.074;5.842;2024-03-08T05:34:02;5.10;-0.90
66035;HTU21D;52805;51.074;5.842;2024-03-08T05:36:28;5.10;-1.00
66035;HTU21D;52805;51.074;5.842;2024-03-08T05:38:54;5.11;-1.13
66035;HTU21D;52805;51.074;5.842;2024-03-08T05:41:20;5.05;-0.98
66035;HTU21D;52805;51.074;5.842;2024-03-08T05:43:45;5.04;-0.89
66035;HTU21D;52805;51.074;5.842;2024-03-08T05:46:14;5.03;-0.88
66035;HTU21D;52805;51.074;5.842;2024-03-08T05:48:40;5.01;-0.93
66035;HTU21D;52805;51.074;5.842;2024-03-08T05:51:06;4.98;-0.76
66035;HTU21D;52805;51.074;5.842;2024-03-08T05:53:32;5.00;-0.81
66035;HTU21D;52805;51.074;5.842;2024-03-08T05:55:58;5.00;-0.72
66035;HTU21D;52805;51.074;5.842;2024-03-08T05:58:24;4.97;-0.60
66035;HTU21D;52805;51.074;5.842;2024-03-08T06:00:50;4.98;-0.63
66035;HTU21D;52805;51.074;5.842;2024-03-08T06:03:16;4.96;-0.57
66035;HTU21D;52805;51.074;5.842;2024-03-08T06:05:41;4.96;-0.54
66035;HTU21D;52805;51.074;5.842;2024-03-08T06:08:07;4.93;-0.55
66035;HTU21D;52805;51.074;5.842;2024-03-08T06:10:33;4.92;-0.47
66035;HTU21D;52805;51.074;5.842;2024-03-08T06:12:59;4.92;-0.35
66035;HTU21D;52805;51.074;5.842;2024-03-08T06:15:27;4.92;-0.19
66035;HTU21D;52805;51.074;5.842;2024-03-08T06:17:52;4.94;-0.19
66035;HTU21D;52805;51.074;5.842;2024-03-08T06:20:19;4.91;-0.15
66035;HTU21D;52805;51.074;5.842;2024-03-08T06:22:44;4.91;-0.24
66035;HTU21D;52805;51.074;5.842;2024-03-08T06:25:11;4.92;-0.18
66035;HTU21D;52805;51.074;5.842;2024-03-08T06:27:41;4.93;-0.09
66035;HTU21D;52805;51.074;5.842;2024-03-08T06:30:09;4.94;-0.22
66035;HTU21D;52805;51.074;5.842;2024-03-08T06:32:36;4.95;0.01
66035;HTU21D;52805;51.074;5.842;2024-03-08T06:35:03;4.94;0.16
66035;HTU21D;52805;51.074;5.842;2024-03-08T06:37:34;4.97;0.22
66035;HTU21D;52805;51.074;5.842;2024-03-08T06:40:01;4.98;0.30
66035;HTU21D;52805;51.074;5.842;2024-03-08T06:42:30;5.00;0.34
66035;HTU21D;52805;51.074;5.842;2024-03-08T06:45:01;5.02;0.26
66035;HTU21D;52805;51.074;5.842;2024-03-08T06:47:31;5.04;0.21
66035;HTU21D;52805;51.074;5.842;2024-03-08T06:49:57;5.04;0.28
66035;HTU21D;52805;51.074;5.842;2024-03-08T06:52:23;5.06;0.29
66035;HTU21D;52805;51.074;5.842;2024-03-08T06:54:48;5.09;0.34
66035;HTU21D;52805;51.074;5.842;2024-03-08T06:57:14;5.10;0.32
66035;HTU21D;52805;51.074;5.842;2024-03-08T06:59:42;5.15;0.20
66035;HTU21D;52805;51.074;5.842;2024-03-08T07:02:08;5.17;0.27
66035;HTU21D;52805;51.074;5.842;2024-03-08T07:04:36;5.19;0.33
66035;HTU21D;52805;51.074;5.842;2024-03-08T07:07:06;5.20;0.35
66035;HTU21D;52805;51.074;5.842;2024-03-08T07:09:38;5.23;0.33
66035;HTU21D;52805;51.074;5.842;2024-03-08T07:12:04;5.25;0.48
66035;HTU21D;52805;51.074;5.842;2024-03-08T07:14:30;5.32;0.37
66035;HTU21D;52805;51.074;5.842;2024-03-08T07:16:58;5.34;0.44
66035;HTU21D;52805;51.074;5.842;2024-03-08T07:19:24;5.39;0.39
66035;HTU21D;52805;51.074;5.842;2024-03-08T07:21:50;5.43;0.36
66035;HTU21D;52805;51.074;5.842;2024-03-08T07:24:15;5.48;0.28
66035;HTU21D;52805;51.074;5.842;2024-03-08T07:27:04;5.52;0.17
66035;HTU21D;52805;51.074;5.842;2024-03-08T07:29:31;5.55;0.27
66035;HTU21D;52805;51.074;5.842;2024-03-08T07:31:57;5.59;0.31
66035;HTU21D;52805;51.074;5.842;2024-03-08T07:34:25;5.64;0.23
66035;HTU21D;52805;51.074;5.842;2024-03-08T07:36:51;5.70;0.16
66035;HTU21D;52805;51.074;5.842;2024-03-08T07:39:17;5.74;0.18
66035;HTU21D;52805;51.074;5.842;2024-03-08T07:41:43;5.78;0.24
66035;HTU21D;52805;51.074;5.842;2024-03-08T07:44:08;5.81;0.26
66035;HTU21D;52805;51.074;5.842;2024-03-08T07:46:34;5.86;0.32
66035;HTU21D;52805;51.074;5.842;2024-03-08T07:49:00;5.89;0.38
66035;HTU21D;52805;51.074;5.842;2024-03-08T07:51:26;5.95;0.09
66035;HTU21D;52805;51.074;5.842;2024-03-08T07:53:52;5.98;0.24
66035;HTU21D;52805;51.074;5.842;2024-03-08T07:56:18;6.02;0.13
66035;HTU21D;52805;51.074;5.842;2024-03-08T07:58:45;6.05;0.22
66035;HTU21D;52805;51.074;5.842;2024-03-08T08:01:17;6.11;0.21
66035;HTU21D;52805;51.074;5.842;2024-03-08T08:03:44;6.16;0.26
66035;HTU21D;52805;51.074;5.842;2024-03-08T08:06:09;6.22;0.21
66035;HTU21D;52805;51.074;5.842;2024-03-08T08:08:37;6.26;0.12
66035;HTU21D;52805;51.074;5.842;2024-03-08T08:11:02;6.30;0.08
66035;HTU21D;52805;51.074;5.842;2024-03-08T08:13:28;6.31;0.06
66035;HTU21D;52805;51.074;5.842;2024-03-08T08:15:58;6.38;-0.02
66035;HTU21D;52805;51.074;5.842;2024-03-08T08:18:24;6.42;-0.02
66035;HTU21D;52805;51.074;5.842;2024-03-08T08:20:51;6.46;-0.24
66035;HTU21D;52805;51.074;5.842;2024-03-08T08:23:18;6.50;-0.26
66035;HTU21D;52805;51.074;5.842;2024-03-08T08:25:46;6.53;-0.24
66035;HTU21D;52805;51.074;5.842;2024-03-08T08:28:11;6.58;-0.37
66035;HTU21D;52805;51.074;5.842;2024-03-08T08:30:38;6.61;-0.23
66035;HTU21D;52805;51.074;5.842;2024-03-08T08:33:04;6.65;-0.02
66035;HTU21D;52805;51.074;5.842;2024-03-08T08:35:31;6.70;-0.09
66035;HTU21D;52805;51.074;5.842;2024-03-08T08:37:58;6.76;-0.12
66035;HTU21D;52805;51.074;5.842;2024-03-08T08:40:25;6.84;-0.38
66035;HTU21D;52805;51.074;5.842;2024-03-08T08:42:54;6.87;-0.53
66035;HTU21D;52805;51.074;5.842;2024-03-08T08:45:19;6.91;-0.44
66035;HTU21D;52805;51.074;5.842;2024-03-08T08:47:45;6.98;-0.57
66035;HTU21D;52805;51.074;5.842;2024-03-08T08:50:13;7.02;-0.34
66035;HTU21D;52805;51.074;5.842;2024-03-08T08:52:39;7.10;-0.38
66035;HTU21D;52805;51.074;5.842;2024-03-08T08:55:05;7.13;-0.51
66035;HTU21D;52805;51.074;5.842;2024-03-08T08:57:32;7.17;-0.57
66035;HTU21D;52805;51.074;5.842;2024-03-08T09:00:01;7.22;-0.74
66035;HTU21D;52805;51.074;5.842;2024-03-08T09:02:27;7.26;-0.81
66035;HTU21D;52805;51.074;5.842;2024-03-08T09:04:53;7.31;-0.69
66035;HTU21D;52805;51.074;5.842;2024-03-08T09:07:19;7.37;-0.80
66035;HTU21D;52805;51.074;5.842;2024-03-08T09:09:45;7.41;-0.74
66035;HTU21D;52805;51.074;5.842;2024-03-08T09:12:11;7.45;-0.87
66035;HTU21D;52805;51.074;5.842;2024-03-08T09:14:41;7.49;-1.09
66035;HTU21D;52805;51.074;5.842;2024-03-08T09:17:08;7.53;-1.16
66035;HTU21D;52805;51.074;5.842;2024-03-08T09:19:37;7.57;-1.27
66035;HTU21D;52805;51.074;5.842;2024-03-08T09:22:03;7.61;-1.15
66035;HTU21D;52805;51.074;5.842;2024-03-08T09:24:30;7.68;-1.32
66035;HTU21D;52805;51.074;5.842;2024-03-08T09:26:57;7.72;-1.30
66035;HTU21D;52805;51.074;5.842;2024-03-08T09:29:24;7.81;-1.20
66035;HTU21D;52805;51.074;5.842;2024-03-08T09:31:50;7.85;-1.26
66035;HTU21D;52805;51.074;5.842;2024-03-08T09:34:15;7.88;-1.39
66035;HTU21D;52805;51.074;5.842;2024-03-08T09:36:41;7.96;-1.25
66035;HTU21D;52805;51.074;5.842;2024-03-08T09:39:07;8.02;-1.22
66035;HTU21D;52805;51.074;5.842;2024-03-08T09:41:33;8.09;-1.38
66035;HTU21D;52805;51.074;5.842;2024-03-08T09:44:00;8.13;-1.49
66035;HTU21D;52805;51.074;5.842;2024-03-08T09:46:26;8.20;-1.55
66035;HTU21D;52805;51.074;5.842;2024-03-08T09:48:55;8.27;-1.59
66035;HTU21D;52805;51.074;5.842;2024-03-08T09:51:27;8.32;-2.05
66035;HTU21D;52805;51.074;5.842;2024-03-08T09:53:54;8.37;-1.93
66035;HTU21D;52805;51.074;5.842;2024-03-08T09:56:22;8.45;-1.83
66035;HTU21D;52805;51.074;5.842;2024-03-08T09:58:49;8.55;-1.94
66035;HTU21D;52805;51.074;5.842;2024-03-08T10:01:33;8.62;-2.24
66035;HTU21D;52805;51.074;5.842;2024-03-08T10:03:59;8.68;-2.09
66035;HTU21D;52805;51.074;5.842;2024-03-08T10:06:24;8.77;-2.43
66035;HTU21D;52805;51.074;5.842;2024-03-08T10:08:51;8.82;-2.64
66035;HTU21D;52805;51.074;5.842;2024-03-08T10:11:20;8.90;-3.28
66035;HTU21D;52805;51.074;5.842;2024-03-08T10:13:48;8.94;-3.45
66035;HTU21D;52805;51.074;5.842;2024-03-08T10:16:16;9.03;-3.54
66035;HTU21D;52805;51.074;5.842;2024-03-08T10:18:42;9.07;-3.80
66035;HTU21D;52805;51.074;5.842;2024-03-08T10:21:11;9.14;-3.96
66035;HTU21D;52805;51.074;5.842;2024-03-08T10:23:37;9.20;-4.06
66035;HTU21D;52805;51.074;5.842;2024-03-08T10:26:10;9.27;-4.15
66035;HTU21D;52805;51.074;5.842;2024-03-08T10:28:36;9.32;-4.39
66035;HTU21D;52805;51.074;5.842;2024-03-08T10:31:02;9.38;-4.63
66035;HTU21D;52805;51.074;5.842;2024-03-08T10:33:28;9.45;-4.70
66035;HTU21D;52805;51.074;5.842;2024-03-08T10:35:53;9.52;-5.21
66035;HTU21D;52805;51.074;5.842;2024-03-08T10:38:22;9.57;-5.41
66035;HTU21D;52805;51.074;5.842;2024-03-08T10:40:50;9.62;-5.32
66035;HTU21D;52805;51.074;5.842;2024-03-08T10:43:32;9.71;-5.40
66035;HTU21D;52805;51.074;5.842;2024-03-08T10:46:21;9.79;-5.87
66035;HTU21D;52805;51.074;5.842;2024-03-08T10:48:55;9.86;-6.00
66035;HTU21D;52805;51.074;5.842;2024-03-08T10:51:25;9.97;-6.00
66035;HTU21D;52805;51.074;5.842;2024-03-08T10:53:52;10.04;-6.00
66035;HTU21D;52805;51.074;5.842;2024-03-08T10:56:18;10.10;-6.00
66035;HTU21D;52805;51.074;5.842;2024-03-08T10:58:44;10.19;-6.00
66035;HTU21D;52805;51.074;5.842;2024-03-08T11:01:11;10.22;-6.00
66035;HTU21D;52805;51.074;5.842;2024-03-08T11:06:19;10.37;-6.00
66035;HTU21D;52805;51.074;5.842;2024-03-08T11:08:48;10.49;-6.00
66035;HTU21D;52805;51.074;5.842;2024-03-08T11:11:33;10.55;-6.00
66035;HTU21D;52805;51.074;5.842;2024-03-08T11:14:03;10.60;-6.00
66035;HTU21D;52805;51.074;5.842;2024-03-08T11:19:04;10.78;-6.00
66035;HTU21D;52805;51.074;5.842;2024-03-08T11:21:31;10.86;-6.00
66035;HTU21D;52805;51.074;5.842;2024-03-08T11:24:00;10.98;-6.00
66035;HTU21D;52805;51.074;5.842;2024-03-08T11:26:29;11.09;-6.00
66035;HTU21D;52805;51.074;5.842;2024-03-08T11:34:39;11.38;-6.00
66035;HTU21D;52805;51.074;5.842;2024-03-08T11:37:10;11.46;-6.00
66035;HTU21D;52805;51.074;5.842;2024-03-08T11:39:39;11.56;-6.00
66035;HTU21D;52805;51.074;5.842;2024-03-08T11:42:06;11.61;-6.00
66035;HTU21D;52805;51.074;5.842;2024-03-08T11:44:32;11.64;-6.00
66035;HTU21D;52805;51.074;5.842;2024-03-08T11:46:58;11.68;-6.00
66035;HTU21D;52805;51.074;5.842;2024-03-08T11:49:24;11.73;-6.00
66035;HTU21D;52805;51.074;5.842;2024-03-08T11:51:53;11.79;-6.00
66035;HTU21D;52805;51.074;5.842;2024-03-08T11:54:19;11.81;-6.00
66035;HTU21D;52805;51.074;5.842;2024-03-08T11:56:45;11.86;-6.00
66035;HTU21D;52805;51.074;5.842;2024-03-08T11:59:13;11.93;-6.00
66035;HTU21D;52805;51.074;5.842;2024-03-08T12:01:40;12.05;-6.00
66035;HTU21D;52805;51.074;5.842;2024-03-08T12:04:06;12.11;-6.00
66035;HTU21D;52805;51.074;5.842;2024-03-08T12:06:37;12.20;-6.00
66035;HTU21D;52805;51.074;5.842;2024-03-08T12:09:10;12.30;-6.00
66035;HTU21D;52805;51.074;5.842;2024-03-08T12:11:36;12.37;-6.00
66035;HTU21D;52805;51.074;5.842;2024-03-08T12:14:03;12.45;-6.00
66035;HTU21D;52805;51.074;5.842;2024-03-08T12:16:29;12.52;-6.00
66035;HTU21D;52805;51.074;5.842;2024-03-08T12:18:56;12.59;-6.00
66035;HTU21D;52805;51.074;5.842;2024-03-08T12:21:22;12.59;-6.00
66035;HTU21D;52805;51.074;5.842;2024-03-08T12:24:09;12.60;-6.00
66035;HTU21D;52805;51.074;5.842;2024-03-08T12:26:38;12.56;-6.00
66035;HTU21D;52805;51.074;5.842;2024-03-08T12:29:17;12.57;-6.00
66035;HTU21D;52805;51.074;5.842;2024-03-08T12:31:46;12.57;-6.00
66035;HTU21D;52805;51.074;5.842;2024-03-08T12:34:13;12.56;-6.00
66035;HTU21D;52805;51.074;5.842;2024-03-08T12:36:48;12.56;-6.00
66035;HTU21D;52805;51.074;5.842;2024-03-08T12:39:16;12.58;-6.00
66035;HTU21D;52805;51.074;5.842;2024-03-08T12:41:44;12.61;-6.00
66035;HTU21D;52805;51.074;5.842;2024-03-08T12:44:09;12.64;-6.00
66035;HTU21D;52805;51.074;5.842;2024-03-08T12:46:39;12.65;-6.00
66035;HTU21D;52805;51.074;5.842;2024-03-08T12:49:09;12.69;-6.00
66035;HTU21D;52805;51.074;5.842;2024-03-08T12:51:38;12.72;-6.00
66035;HTU21D;52805;51.074;5.842;2024-03-08T12:54:05;12.76;-6.00
66035;HTU21D;52805;51.074;5.842;2024-03-08T12:56:34;12.79;-6.00
66035;HTU21D;52805;51.074;5.842;2024-03-08T12:59:01;12.87;-6.00
66035;HTU21D;52805;51.074;5.842;2024-03-08T13:01:28;12.90;-6.00
66035;HTU21D;52805;51.074;5.842;2024-03-08T13:03:55;12.92;-6.00
66035;HTU21D;52805;51.074;5.842;2024-03-08T13:06:22;12.96;-6.00
66035;HTU21D;52805;51.074;5.842;2024-03-08T13:08:53;13.05;-6.00
66035;HTU21D;52805;51.074;5.842;2024-03-08T13:11:19;13.11;-6.00
66035;HTU21D;52805;51.074;5.842;2024-03-08T13:13:46;13.18;-6.00
66035;HTU21D;52805;51.074;5.842;2024-03-08T13:16:12;13.22;-6.00
66035;HTU21D;52805;51.074;5.842;2024-03-08T13:18:41;13.23;-6.00
66035;HTU21D;52805;51.074;5.842;2024-03-08T13:21:10;13.29;-6.00
66035;HTU21D;52805;51.074;5.842;2024-03-08T13:23:37;13.33;-6.00
66035;HTU21D;52805;51.074;5.842;2024-03-08T13:26:07;13.37;-6.00
66035;HTU21D;52805;51.074;5.842;2024-03-08T13:28:33;13.45;-6.00
66035;HTU21D;52805;51.074;5.842;2024-03-08T13:31:04;13.51;-6.00
66035;HTU21D;52805;51.074;5.842;2024-03-08T13:33:35;13.51;-6.00
66035;HTU21D;52805;51.074;5.842;2024-03-08T13:36:03;13.53;-6.00
66035;HTU21D;52805;51.074;5.842;2024-03-08T13:38:30;13.53;-6.00
66035;HTU21D;52805;51.074;5.842;2024-03-08T13:40:58;13.53;-6.00
66035;HTU21D;52805;51.074;5.842;2024-03-08T13:43:24;13.55;-6.00
66035;HTU21D;52805;51.074;5.842;2024-03-08T13:45:50;13.56;-6.00
66035;HTU21D;52805;51.074;5.842;2024-03-08T13:48:15;13.63;-6.00
66035;HTU21D;52805;51.074;5.842;2024-03-08T13:50:41;13.64;-6.00
66035;HTU21D;52805;51.074;5.842;2024-03-08T13:53:07;13.68;-6.00
66035;HTU21D;52805;51.074;5.842;2024-03-08T13:55:35;13.74;-6.00
66035;HTU21D;52805;51.074;5.842;2024-03-08T13:58:01;13.78;-6.00
66035;HTU21D;52805;51.074;5.842;2024-03-08T14:00:28;13.77;-6.00
66035;HTU21D;52805;51.074;5.842;2024-03-08T14:02:59;13.80;-6.00
66035;HTU21D;52805;51.074;5.842;2024-03-08T14:05:24;13.81;-6.00
66035;HTU21D;52805;51.074;5.842;2024-03-08T14:07:50;13.83;-6.00
66035;HTU21D;52805;51.074;5.842;2024-03-08T14:10:19;13.89;-6.00
66035;HTU21D;52805;51.074;5.842;2024-03-08T14:12:48;13.93;-6.00
66035;HTU21D;52805;51.074;5.842;2024-03-08T14:15:15;13.99;-6.00
66035;HTU21D;52805;51.074;5.842;2024-03-08T14:17:42;14.06;-6.00
66035;HTU21D;52805;51.074;5.842;2024-03-08T14:20:08;14.09;-6.00
66035;HTU21D;52805;51.074;5.842;2024-03-08T14:22:35;14.11;-6.00
66035;HTU21D;52805;51.074;5.842;2024-03-08T14:25:00;14.14;-6.00
66035;HTU21D;52805;51.074;5.842;2024-03-08T14:27:26;14.19;-6.00
66035;HTU21D;52805;51.074;5.842;2024-03-08T14:29:52;14.21;-6.00
66035;HTU21D;52805;51.074;5.842;2024-03-08T14:32:20;14.25;-6.00
66035;HTU21D;52805;51.074;5.842;2024-03-08T14:34:48;14.27;-6.00
66035;HTU21D;52805;51.074;5.842;2024-03-08T14:37:14;14.26;-6.00
66035;HTU21D;52805;51.074;5.842;2024-03-08T14:39:41;14.29;-6.00
66035;HTU21D;52805;51.074;5.842;2024-03-08T14:42:06;14.29;-6.00
66035;HTU21D;52805;51.074;5.842;2024-03-08T14:44:34;14.34;-6.00
66035;HTU21D;52805;51.074;5.842;2024-03-08T14:47:00;14.38;-6.00
66035;HTU21D;52805;51.074;5.842;2024-03-08T14:49:26;14.41;-6.00
66035;HTU21D;52805;51.074;5.842;2024-03-08T14:51:54;14.43;-6.00
66035;HTU21D;52805;51.074;5.842;2024-03-08T14:54:20;14.47;-6.00
66035;HTU21D;52805;51.074;5.842;2024-03-08T14:56:48;14.50;-6.00
66035;HTU21D;52805;51.074;5.842;2024-03-08T14:59:16;14.49;-6.00
66035;HTU21D;52805;51.074;5.842;2024-03-08T15:01:42;14.49;-6.00
66035;HTU21D;52805;51.074;5.842;2024-03-08T15:04:11;14.47;-6.00
66035;HTU21D;52805;51.074;5.842;2024-03-08T15:06:37;14.50;-6.00
66035;HTU21D;52805;51.074;5.842;2024-03-08T15:09:06;14.50;-6.00
66035;HTU21D;52805;51.074;5.842;2024-03-08T15:11:40;14.50;-6.00
66035;HTU21D;52805;51.074;5.842;2024-03-08T15:14:07;14.47;-6.00
66035;HTU21D;52805;51.074;5.842;2024-03-08T15:16:40;14.52;-6.00
66035;HTU21D;52805;51.074;5.842;2024-03-08T15:19:07;14.50;-6.00
66035;HTU21D;52805;51.074;5.842;2024-03-08T15:21:33;14.48;-6.00
66035;HTU21D;52805;51.074;5.842;2024-03-08T15:24:02;14.49;-6.00
66035;HTU21D;52805;51.074;5.842;2024-03-08T15:26:29;14.47;-6.00
66035;HTU21D;52805;51.074;5.842;2024-03-08T15:28:57;14.50;-6.00
66035;HTU21D;52805;51.074;5.842;2024-03-08T15:31:23;14.50;-6.00
66035;HTU21D;52805;51.074;5.842;2024-03-08T15:33:50;14.49;-6.00
66035;HTU21D;52805;51.074;5.842;2024-03-08T15:36:32;14.47;-6.00
66035;HTU21D;52805;51.074;5.842;2024-03-08T15:39:02;14.45;-6.00